sensor_id;sensor_type;location;lat;lon;timestamp;temperature;humidity
26687;DHT22;14298;50.900;4.648;2022-08-19T00:00:05;17.20;97.10
26687;DHT22;14298;50.900;4.648;2022-08-19T00:02:36;17.10;97.10
26687;DHT22;14298;50.900;4.648;2022-08-19T00:05:05;17.10;97.10
26687;DHT22;14298;50.900;4.648;2022-08-19T00:07:33;17.10;97.10
26687;DHT22;14298;50.900;4.648;2022-08-19T00:10:04;17.00;97.10
26687;DHT22;14298;50.900;4.648;2022-08-19T00:12:33;17.00;97.10
26687;DHT22;14298;50.900;4.648;2022-08-19T00:15:06;17.00;97.10
26687;DHT22;14298;50.900;4.648;2022-08-19T00:17:34;17.00;97.10
26687;DHT22;14298;50.900;4.648;2022-08-19T00:20:03;17.00;97.10
26687;DHT22;14298;50.900;4.648;2022-08-19T00:22:32;17.00;97.10
26687;DHT22;14298;50.900;4.648;2022-08-19T00:25:00;16.90;97.10
26687;DHT22;14298;50.900;4.648;2022-08-19T00:27:29;16.90;97.10
26687;DHT22;14298;50.900;4.648;2022-08-19T00:29:57;16.90;97.10
26687;DHT22;14298;50.900;4.648;2022-08-19T00:32:26;16.90;97.10
26687;DHT22;14298;50.900;4.648;2022-08-19T00:34:55;16.80;97.10
26687;DHT22;14298;50.900;4.648;2022-08-19T00:37:24;16.80;97.10
26687;DHT22;14298;50.900;4.648;2022-08-19T00:39:54;16.80;97.10
26687;DHT22;14298;50.900;4.648;2022-08-19T00:42:23;16.70;97.10
26687;DHT22;14298;50.900;4.648;2022-08-19T00:45:18;16.80;97.10
26687;DHT22;14298;50.900;4.648;2022-08-19T00:47:42;16.80;97.10
26687;DHT22;14298;50.900;4.648;2022-08-19T00:50:13;16.80;97.10
26687;DHT22;14298;50.900;4.648;2022-08-19T00:52:45;16.90;97.10
26687;DHT22;14298;50.900;4.648;2022-08-19T00:55:17;17.00;97.10
26687;DHT22;14298;50.900;4.648;2022-08-19T00:57:59;17.00;97.10
26687;DHT22;14298;50.900;4.648;2022-08-19T01:00:25;17.00;97.10
26687;DHT22;14298;50.900;4.648;2022-08-19T01:02:54;17.10;97.10
26687;DHT22;14298;50.900;4.648;2022-08-19T01:05:26;17.10;97.10
26687;DHT22;14298;50.900;4.648;2022-08-19T01:08:00;17.20;97.10
26687;DHT22;14298;50.900;4.648;2022-08-19T01:10:32;17.30;97.10
26687;DHT22;14298;50.900;4.648;2022-08-19T01:13:01;17.40;97.10
26687;DHT22;14298;50.900;4.648;2022-08-19T01:15:33;17.40;97.10
26687;DHT22;14298;50.900;4.648;2022-08-19T01:18:07;17.40;97.10
26687;DHT22;14298;50.900;4.648;2022-08-19T01:20:36;17.50;97.10
26687;DHT22;14298;50.900;4.648;2022-08-19T01:23:04;17.50;97.10
26687;DHT22;14298;50.900;4.648;2022-08-19T01:25:48;17.50;97.10
26687;DHT22;14298;50.900;4.648;2022-08-19T01:28:20;17.50;97.10
26687;DHT22;14298;50.900;4.648;2022-08-19T01:31:09;17.50;97.10
26687;DHT22;14298;50.900;4.648;2022-08-19T01:33:38;17.50;97.10
26687;DHT22;14298;50.900;4.648;2022-08-19T01:36:28;17.50;97.10
26687;DHT22;14298;50.900;4.648;2022-08-19T01:38:57;17.40;97.10
26687;DHT22;14298;50.900;4.648;2022-08-19T01:41:45;17.40;97.10
26687;DHT22;14298;50.900;4.648;2022-08-19T01:44:14;17.30;97.10
26687;DHT22;14298;50.900;4.648;2022-08-19T01:46:44;17.20;97.10
26687;DHT22;14298;50.900;4.648;2022-08-19T01:49:12;17.20;97.10
26687;DHT22;14298;50.900;4.648;2022-08-19T01:51:41;17.10;97.10
26687;DHT22;14298;50.900;4.648;2022-08-19T01:54:11;17.10;97.10
26687;DHT22;14298;50.900;4.648;2022-08-19T01:56:39;17.00;97.10
26687;DHT22;14298;50.900;4.648;2022-08-19T01:59:14;16.90;97.10
26687;DHT22;14298;50.900;4.648;2022-08-19T02:01:43;16.90;97.10
26687;DHT22;14298;50.900;4.648;2022-08-19T02:04:11;16.80;97.10
26687;DHT22;14298;50.900;4.648;2022-08-19T02:06:39;16.70;97.10
26687;DHT22;14298;50.900;4.648;2022-08-19T02:09:08;16.70;97.10
26687;DHT22;14298;50.900;4.648;2022-08-19T02:11:37;16.60;97.10
26687;DHT22;14298;50.900;4.648;2022-08-19T02:14:25;16.60;97.10
26687;DHT22;14298;50.900;4.648;2022-08-19T02:16:54;16.60;97.10
26687;DHT22;14298;50.900;4.648;2022-08-19T02:19:22;16.60;97.10
26687;DHT22;14298;50.900;4.648;2022-08-19T02:21:50;16.50;97.10
26687;DHT22;14298;50.900;4.648;2022-08-19T02:24:19;16.40;97.10
26687;DHT22;14298;50.900;4.648;2022-08-19T02:26:47;16.30;97.10
26687;DHT22;14298;50.900;4.648;2022-08-19T02:29:16;16.30;97.10
26687;DHT22;14298;50.900;4.648;2022-08-19T02:31:44;16.30;97.10
26687;DHT22;14298;50.900;4.648;2022-08-19T02:34:12;16.30;97.10
26687;DHT22;14298;50.900;4.648;2022-08-19T02:36:41;16.30;97.10
26687;DHT22;14298;50.900;4.648;2022-08-19T02:39:10;16.30;97.10
26687;DHT22;14298;50.900;4.648;2022-08-19T02:41:38;16.30;97.10
26687;DHT22;14298;50.900;4.648;2022-08-19T02:44:06;16.20;97.10
26687;DHT22;14298;50.900;4.648;2022-08-19T02:46:35;16.20;97.10
26687;DHT22;14298;50.900;4.648;2022-08-19T02:49:06;16.10;97.10
26687;DHT22;14298;50.900;4.648;2022-08-19T02:51:37;16.00;97.10
26687;DHT22;14298;50.900;4.648;2022-08-19T02:54:07;16.00;97.10
26687;DHT22;14298;50.900;4.648;2022-08-19T02:56:38;15.90;97.10
26687;DHT22;14298;50.900;4.648;2022-08-19T02:59:07;15.90;97.10
26687;DHT22;14298;50.900;4.648;2022-08-19T03:01:38;15.90;97.10
26687;DHT22;14298;50.900;4.648;2022-08-19T03:04:08;15.80;97.10
26687;DHT22;14298;50.900;4.648;2022-08-19T03:06:39;15.80;97.10
26687;DHT22;14298;50.900;4.648;2022-08-19T03:09:08;15.70;97.10
26687;DHT22;14298;50.900;4.648;2022-08-19T03:11:37;15.70;97.10
26687;DHT22;14298;50.900;4.648;2022-08-19T03:14:07;15.60;97.10
26687;DHT22;14298;50.900;4.648;2022-08-19T03:16:44;15.60;97.10
26687;DHT22;14298;50.900;4.648;2022-08-19T03:19:10;15.60;97.10
26687;DHT22;14298;50.900;4.648;2022-08-19T03:21:38;15.50;97.10
26687;DHT22;14298;50.900;4.648;2022-08-19T03:24:08;15.50;97.10
26687;DHT22;14298;50.900;4.648;2022-08-19T03:26:45;15.50;97.10
26687;DHT22;14298;50.900;4.648;2022-08-19T03:29:15;15.50;97.10
26687;DHT22;14298;50.900;4.648;2022-08-19T03:31:44;15.40;97.10
26687;DHT22;14298;50.900;4.648;2022-08-19T03:34:16;15.50;97.10
26687;DHT22;14298;50.900;4.648;2022-08-19T03:36:45;15.50;97.10
26687;DHT22;14298;50.900;4.648;2022-08-19T03:39:15;15.40;97.10
26687;DHT22;14298;50.900;4.648;2022-08-19T03:41:46;15.40;97.10
26687;DHT22;14298;50.900;4.648;2022-08-19T03:44:18;15.40;97.10
26687;DHT22;14298;50.900;4.648;2022-08-19T03:46:53;15.30;97.10
26687;DHT22;14298;50.900;4.648;2022-08-19T03:49:24;15.30;97.10
26687;DHT22;14298;50.900;4.648;2022-08-19T03:51:53;15.20;97.10
26687;DHT22;14298;50.900;4.648;2022-08-19T03:54:24;15.20;97.10
26687;DHT22;14298;50.900;4.648;2022-08-19T03:56:54;15.20;97.10
26687;DHT22;14298;50.900;4.648;2022-08-19T03:59:29;15.10;97.10
26687;DHT22;14298;50.900;4.648;2022-08-19T04:02:00;15.10;97.10
26687;DHT22;14298;50.900;4.648;2022-08-19T04:04:29;15.10;97.10
26687;DHT22;14298;50.900;4.648;2022-08-19T04:07:17;15.00;97.10
26687;DHT22;14298;50.900;4.648;2022-08-19T04:09:48;15.00;97.10
26687;DHT22;14298;50.900;4.648;2022-08-19T04:12:18;15.00;97.10
26687;DHT22;14298;50.900;4.648;2022-08-19T04:14:47;15.00;97.10
26687;DHT22;14298;50.900;4.648;2022-08-19T04:17:16;15.00;97.10
26687;DHT22;14298;50.900;4.648;2022-08-19T04:19:44;15.00;97.10
26687;DHT22;14298;50.900;4.648;2022-08-19T04:22:12;15.00;97.10
26687;DHT22;14298;50.900;4.648;2022-08-19T04:25:00;15.00;97.10
26687;DHT22;14298;50.900;4.648;2022-08-19T04:27:29;15.00;97.10
26687;DHT22;14298;50.900;4.648;2022-08-19T04:29:58;15.00;97.10
26687;DHT22;14298;50.900;4.648;2022-08-19T04:32:26;15.00;97.10
26687;DHT22;14298;50.900;4.648;2022-08-19T04:34:55;15.10;97.10
26687;DHT22;14298;50.900;4.648;2022-08-19T04:37:25;15.20;97.10
26687;DHT22;14298;50.900;4.648;2022-08-19T04:39:54;15.50;97.10
26687;DHT22;14298;50.900;4.648;2022-08-19T04:42:40;15.70;97.10
26687;DHT22;14298;50.900;4.648;2022-08-19T04:45:13;15.80;97.10
26687;DHT22;14298;50.900;4.648;2022-08-19T04:47:43;15.80;97.10
26687;DHT22;14298;50.900;4.648;2022-08-19T04:50:11;15.90;97.10
26687;DHT22;14298;50.900;4.648;2022-08-19T04:52:40;15.80;97.10
26687;DHT22;14298;50.900;4.648;2022-08-19T04:55:12;15.80;97.10
26687;DHT22;14298;50.900;4.648;2022-08-19T04:57:40;15.80;97.10
26687;DHT22;14298;50.900;4.648;2022-08-19T05:00:10;15.80;97.10
26687;DHT22;14298;50.900;4.648;2022-08-19T05:02:39;15.80;97.10
26687;DHT22;14298;50.900;4.648;2022-08-19T05:05:08;15.80;97.10
26687;DHT22;14298;50.900;4.648;2022-08-19T05:07:36;15.80;97.10
26687;DHT22;14298;50.900;4.648;2022-08-19T05:10:05;15.90;97.10
26687;DHT22;14298;50.900;4.648;2022-08-19T05:12:34;16.00;97.10
26687;DHT22;14298;50.900;4.648;2022-08-19T05:15:04;16.00;97.10
26687;DHT22;14298;50.900;4.648;2022-08-19T05:17:35;16.10;97.10
26687;DHT22;14298;50.900;4.648;2022-08-19T05:20:06;16.20;97.10
26687;DHT22;14298;50.900;4.648;2022-08-19T05:22:52;16.20;97.10
26687;DHT22;14298;50.900;4.648;2022-08-19T05:25:40;16.30;97.10
26687;DHT22;14298;50.900;4.648;2022-08-19T05:28:09;16.40;97.10
26687;DHT22;14298;50.900;4.648;2022-08-19T05:30:37;16.60;97.10
26687;DHT22;14298;50.900;4.648;2022-08-19T05:33:07;16.70;97.10
26687;DHT22;14298;50.900;4.648;2022-08-19T05:35:38;16.80;97.10
26687;DHT22;14298;50.900;4.648;2022-08-19T05:38:08;16.90;97.10
26687;DHT22;14298;50.900;4.648;2022-08-19T05:40:41;17.00;97.10
26687;DHT22;14298;50.900;4.648;2022-08-19T05:43:07;17.10;97.10
26687;DHT22;14298;50.900;4.648;2022-08-19T05:45:40;17.10;97.10
26687;DHT22;14298;50.900;4.648;2022-08-19T05:48:13;17.20;97.10
26687;DHT22;14298;50.900;4.648;2022-08-19T05:50:42;17.30;97.10
26687;DHT22;14298;50.900;4.648;2022-08-19T05:53:12;17.40;97.10
26687;DHT22;14298;50.900;4.648;2022-08-19T05:55:43;17.50;97.10
26687;DHT22;14298;50.900;4.648;2022-08-19T05:58:11;17.50;97.10
26687;DHT22;14298;50.900;4.648;2022-08-19T06:00:39;17.50;97.10
26687;DHT22;14298;50.900;4.648;2022-08-19T06:03:09;17.60;97.10
26687;DHT22;14298;50.900;4.648;2022-08-19T06:05:37;17.70;97.10
26687;DHT22;14298;50.900;4.648;2022-08-19T06:08:06;17.80;97.10
26687;DHT22;14298;50.900;4.648;2022-08-19T06:10:34;17.90;97.10
26687;DHT22;14298;50.900;4.648;2022-08-19T06:13:04;18.00;97.10
26687;DHT22;14298;50.900;4.648;2022-08-19T06:15:32;18.10;97.10
26687;DHT22;14298;50.900;4.648;2022-08-19T06:18:01;18.20;97.10
26687;DHT22;14298;50.900;4.648;2022-08-19T06:20:29;18.30;97.10
26687;DHT22;14298;50.900;4.648;2022-08-19T06:22:59;18.30;97.10
26687;DHT22;14298;50.900;4.648;2022-08-19T06:25:28;18.40;97.10
26687;DHT22;14298;50.900;4.648;2022-08-19T06:27:56;18.50;97.10
26687;DHT22;14298;50.900;4.648;2022-08-19T06:30:24;18.60;97.10
26687;DHT22;14298;50.900;4.648;2022-08-19T06:32:53;18.80;97.10
26687;DHT22;14298;50.900;4.648;2022-08-19T06:35:21;19.10;97.10
26687;DHT22;14298;50.900;4.648;2022-08-19T06:37:55;19.20;97.10
26687;DHT22;14298;50.900;4.648;2022-08-19T06:40:21;19.30;97.10
26687;DHT22;14298;50.900;4.648;2022-08-19T06:42:49;19.40;97.10
26687;DHT22;14298;50.900;4.648;2022-08-19T06:45:18;19.50;97.10
26687;DHT22;14298;50.900;4.648;2022-08-19T06:47:47;19.60;97.10
26687;DHT22;14298;50.900;4.648;2022-08-19T06:50:15;19.70;97.10
26687;DHT22;14298;50.900;4.648;2022-08-19T06:52:44;19.90;97.10
26687;DHT22;14298;50.900;4.648;2022-08-19T06:55:13;20.00;97.10
26687;DHT22;14298;50.900;4.648;2022-08-19T06:57:42;20.20;97.10
26687;DHT22;14298;50.900;4.648;2022-08-19T07:00:13;20.30;97.10
26687;DHT22;14298;50.900;4.648;2022-08-19T07:02:43;20.60;97.10
26687;DHT22;14298;50.900;4.648;2022-08-19T07:05:11;20.90;97.10
26687;DHT22;14298;50.900;4.648;2022-08-19T07:07:39;21.20;97.10
26687;DHT22;14298;50.900;4.648;2022-08-19T07:10:09;21.60;97.10
26687;DHT22;14298;50.900;4.648;2022-08-19T07:12:38;22.00;97.10
26687;DHT22;14298;50.900;4.648;2022-08-19T07:15:08;22.50;97.10
26687;DHT22;14298;50.900;4.648;2022-08-19T07:17:38;23.00;97.10
26687;DHT22;14298;50.900;4.648;2022-08-19T07:20:08;23.20;97.10
26687;DHT22;14298;50.900;4.648;2022-08-19T07:22:37;23.30;97.10
26687;DHT22;14298;50.900;4.648;2022-08-19T07:25:07;23.50;97.10
26687;DHT22;14298;50.900;4.648;2022-08-19T07:27:37;23.60;97.10
26687;DHT22;14298;50.900;4.648;2022-08-19T07:30:06;23.80;97.10
26687;DHT22;14298;50.900;4.648;2022-08-19T07:32:35;23.50;97.10
26687;DHT22;14298;50.900;4.648;2022-08-19T07:35:03;23.60;97.10
26687;DHT22;14298;50.900;4.648;2022-08-19T07:37:33;23.90;97.10
26687;DHT22;14298;50.900;4.648;2022-08-19T07:40:05;24.40;97.10
26687;DHT22;14298;50.900;4.648;2022-08-19T07:42:34;24.00;97.10
26687;DHT22;14298;50.900;4.648;2022-08-19T07:45:03;23.50;97.10
26687;DHT22;14298;50.900;4.648;2022-08-19T07:47:32;23.30;97.10
26687;DHT22;14298;50.900;4.648;2022-08-19T07:50:00;23.40;97.10
26687;DHT22;14298;50.900;4.648;2022-08-19T07:52:50;23.60;97.10
26687;DHT22;14298;50.900;4.648;2022-08-19T07:55:23;23.80;97.10
26687;DHT22;14298;50.900;4.648;2022-08-19T07:57:51;24.40;97.10
26687;DHT22;14298;50.900;4.648;2022-08-19T08:00:20;25.00;97.10
26687;DHT22;14298;50.900;4.648;2022-08-19T08:02:49;25.60;97.10
26687;DHT22;14298;50.900;4.648;2022-08-19T08:05:17;26.10;97.10
26687;DHT22;14298;50.900;4.648;2022-08-19T08:08:03;25.50;97.10
26687;DHT22;14298;50.900;4.648;2022-08-19T08:10:51;25.60;97.10
26687;DHT22;14298;50.900;4.648;2022-08-19T08:13:20;25.70;97.10
26687;DHT22;14298;50.900;4.648;2022-08-19T08:15:48;25.80;97.10
26687;DHT22;14298;50.900;4.648;2022-08-19T08:18:17;25.80;97.10
26687;DHT22;14298;50.900;4.648;2022-08-19T08:20:46;25.20;97.10
26687;DHT22;14298;50.900;4.648;2022-08-19T08:23:14;25.40;97.10
26687;DHT22;14298;50.900;4.648;2022-08-19T08:25:57;25.50;97.10
26687;DHT22;14298;50.900;4.648;2022-08-19T08:28:27;25.60;97.10
26687;DHT22;14298;50.900;4.648;2022-08-19T08:30:58;25.60;97.10
26687;DHT22;14298;50.900;4.648;2022-08-19T08:33:28;25.60;97.10
26687;DHT22;14298;50.900;4.648;2022-08-19T08:35:57;25.50;97.10
26687;DHT22;14298;50.900;4.648;2022-08-19T08:38:26;26.20;97.10
26687;DHT22;14298;50.900;4.648;2022-08-19T08:40:59;27.10;97.10
26687;DHT22;14298;50.900;4.648;2022-08-19T08:43:34;26.80;97.10
26687;DHT22;14298;50.900;4.648;2022-08-19T08:46:13;26.60;97.10
26687;DHT22;14298;50.900;4.648;2022-08-19T08:51:32;29.30;97.10
26687;DHT22;14298;50.900;4.648;2022-08-19T08:54:01;31.80;97.10
26687;DHT22;14298;50.900;4.648;2022-08-19T08:56:31;33.00;97.10
26687;DHT22;14298;50.900;4.648;2022-08-19T08:59:05;31.50;97.10
26687;DHT22;14298;50.900;4.648;2022-08-19T09:01:35;31.50;97.10
26687;DHT22;14298;50.900;4.648;2022-08-19T09:04:05;29.60;97.10
26687;DHT22;14298;50.900;4.648;2022-08-19T09:06:51;27.40;97.10
26687;DHT22;14298;50.900;4.648;2022-08-19T09:09:34;26.20;97.10
26687;DHT22;14298;50.900;4.648;2022-08-19T09:12:37;25.60;97.10
26687;DHT22;14298;50.900;4.648;2022-08-19T09:17:15;25.70;97.10
26687;DHT22;14298;50.900;4.648;2022-08-19T09:19:52;25.40;97.10
26687;DHT22;14298;50.900;4.648;2022-08-19T09:22:21;25.30;97.10
26687;DHT22;14298;50.900;4.648;2022-08-19T09:24:50;25.30;97.10
26687;DHT22;14298;50.900;4.648;2022-08-19T09:27:23;25.30;97.10
26687;DHT22;14298;50.900;4.648;2022-08-19T09:29:52;25.40;97.10
26687;DHT22;14298;50.900;4.648;2022-08-19T09:32:22;25.40;97.10
26687;DHT22;14298;50.900;4.648;2022-08-19T09:34:51;25.40;97.10
26687;DHT22;14298;50.900;4.648;2022-08-19T09:37:21;25.50;97.10
26687;DHT22;14298;50.900;4.648;2022-08-19T09:39:50;25.60;97.10
26687;DHT22;14298;50.900;4.648;2022-08-19T09:42:20;25.40;97.10
26687;DHT22;14298;50.900;4.648;2022-08-19T09:44:48;25.20;97.10
26687;DHT22;14298;50.900;4.648;2022-08-19T09:47:16;25.30;97.10
26687;DHT22;14298;50.900;4.648;2022-08-19T09:49:45;25.30;97.10
26687;DHT22;14298;50.900;4.648;2022-08-19T09:52:15;25.20;97.10
26687;DHT22;14298;50.900;4.648;2022-08-19T09:54:43;25.00;97.10
26687;DHT22;14298;50.900;4.648;2022-08-19T09:57:12;24.90;97.10
26687;DHT22;14298;50.900;4.648;2022-08-19T09:59:40;24.90;97.10
26687;DHT22;14298;50.900;4.648;2022-08-19T10:02:09;24.90;97.10
26687;DHT22;14298;50.900;4.648;2022-08-19T10:04:39;25.00;97.10
26687;DHT22;14298;50.900;4.648;2022-08-19T10:07:25;24.80;97.10
26687;DHT22;14298;50.900;4.648;2022-08-19T10:09:54;24.80;97.10
26687;DHT22;14298;50.900;4.648;2022-08-19T10:12:22;24.80;97.10
26687;DHT22;14298;50.900;4.648;2022-08-19T10:14:50;25.00;97.10
26687;DHT22;14298;50.900;4.648;2022-08-19T10:17:39;25.30;97.10
26687;DHT22;14298;50.900;4.648;2022-08-19T10:20:08;25.50;97.10
26687;DHT22;14298;50.900;4.648;2022-08-19T10:22:37;25.30;97.10
26687;DHT22;14298;50.900;4.648;2022-08-19T10:25:06;25.00;97.10
26687;DHT22;14298;50.900;4.648;2022-08-19T10:27:34;25.10;97.10
26687;DHT22;14298;50.900;4.648;2022-08-19T10:30:04;25.30;97.10
26687;DHT22;14298;50.900;4.648;2022-08-19T10:32:33;25.60;97.10
26687;DHT22;14298;50.900;4.648;2022-08-19T10:35:03;25.60;97.10
26687;DHT22;14298;50.900;4.648;2022-08-19T10:37:35;25.50;97.10
26687;DHT22;14298;50.900;4.648;2022-08-19T10:40:06;25.50;97.10
26687;DHT22;14298;50.900;4.648;2022-08-19T10:42:35;25.50;97.10
26687;DHT22;14298;50.900;4.648;2022-08-19T10:45:05;25.60;97.10
26687;DHT22;14298;50.900;4.648;2022-08-19T10:47:33;25.80;97.10
26687;DHT22;14298;50.900;4.648;2022-08-19T10:50:03;26.00;97.10
26687;DHT22;14298;50.900;4.648;2022-08-19T10:52:50;26.30;97.10
26687;DHT22;14298;50.900;4.648;2022-08-19T10:55:21;26.50;97.10
26687;DHT22;14298;50.900;4.648;2022-08-19T10:58:13;26.20;97.10
26687;DHT22;14298;50.900;4.648;2022-08-19T11:00:43;26.00;97.10
26687;DHT22;14298;50.900;4.648;2022-08-19T11:03:11;26.00;97.10
26687;DHT22;14298;50.900;4.648;2022-08-19T11:05:40;25.90;97.10
26687;DHT22;14298;50.900;4.648;2022-08-19T11:08:09;25.90;97.10
26687;DHT22;14298;50.900;4.648;2022-08-19T11:10:43;25.80;97.10
26687;DHT22;14298;50.900;4.648;2022-08-19T11:13:11;25.60;97.10
26687;DHT22;14298;50.900;4.648;2022-08-19T11:15:40;25.60;97.10
26687;DHT22;14298;50.900;4.648;2022-08-19T11:18:08;25.70;97.10
26687;DHT22;14298;50.900;4.648;2022-08-19T11:20:37;25.70;97.10
26687;DHT22;14298;50.900;4.648;2022-08-19T11:23:05;25.80;97.10
26687;DHT22;14298;50.900;4.648;2022-08-19T11:25:34;25.60;97.10
26687;DHT22;14298;50.900;4.648;2022-08-19T11:28:02;25.50;97.10
26687;DHT22;14298;50.900;4.648;2022-08-19T11:30:32;25.30;97.10
26687;DHT22;14298;50.900;4.648;2022-08-19T11:33:01;25.30;97.10
26687;DHT22;14298;50.900;4.648;2022-08-19T11:35:29;25.40;97.10
26687;DHT22;14298;50.900;4.648;2022-08-19T11:37:58;25.30;97.10
26687;DHT22;14298;50.900;4.648;2022-08-19T11:40:27;25.40;97.10
26687;DHT22;14298;50.900;4.648;2022-08-19T11:42:56;25.30;97.10
26687;DHT22;14298;50.900;4.648;2022-08-19T11:45:26;25.30;97.10
26687;DHT22;14298;50.900;4.648;2022-08-19T11:47:55;25.20;97.10
26687;DHT22;14298;50.900;4.648;2022-08-19T11:50:24;25.00;97.10
26687;DHT22;14298;50.900;4.648;2022-08-19T11:52:56;25.00;97.10
26687;DHT22;14298;50.900;4.648;2022-08-19T11:55:25;25.00;97.10
26687;DHT22;14298;50.900;4.648;2022-08-19T11:57:53;25.10;97.10
26687;DHT22;14298;50.900;4.648;2022-08-19T12:00:21;25.10;97.10
26687;DHT22;14298;50.900;4.648;2022-08-19T12:02:50;24.90;97.10
26687;DHT22;14298;50.900;4.648;2022-08-19T12:05:18;24.90;97.10
26687;DHT22;14298;50.900;4.648;2022-08-19T12:07:47;24.80;97.10
26687;DHT22;14298;50.900;4.648;2022-08-19T12:10:15;24.70;97.10
26687;DHT22;14298;50.900;4.648;2022-08-19T12:13:03;24.80;97.10
26687;DHT22;14298;50.900;4.648;2022-08-19T12:15:36;24.90;97.10
26687;DHT22;14298;50.900;4.648;2022-08-19T12:18:05;25.00;97.10
26687;DHT22;14298;50.900;4.648;2022-08-19T12:20:38;25.20;97.10
26687;DHT22;14298;50.900;4.648;2022-08-19T12:23:08;25.40;97.10
26687;DHT22;14298;50.900;4.648;2022-08-19T12:25:42;25.60;97.10
26687;DHT22;14298;50.900;4.648;2022-08-19T12:28:07;25.60;97.10
26687;DHT22;14298;50.900;4.648;2022-08-19T12:30:37;25.30;97.10
26687;DHT22;14298;50.900;4.648;2022-08-19T12:33:06;25.20;97.10
26687;DHT22;14298;50.900;4.648;2022-08-19T12:35:35;25.40;97.10
26687;DHT22;14298;50.900;4.648;2022-08-19T12:38:03;25.60;97.10
26687;DHT22;14298;50.900;4.648;2022-08-19T12:40:32;25.90;97.10
26687;DHT22;14298;50.900;4.648;2022-08-19T12:43:01;26.20;97.10
26687;DHT22;14298;50.900;4.648;2022-08-19T12:45:29;26.50;97.10
26687;DHT22;14298;50.900;4.648;2022-08-19T12:47:57;26.60;97.10
26687;DHT22;14298;50.900;4.648;2022-08-19T12:50:26;26.60;97.10
26687;DHT22;14298;50.900;4.648;2022-08-19T12:52:55;26.90;97.10
26687;DHT22;14298;50.900;4.648;2022-08-19T12:55:24;27.10;97.10
26687;DHT22;14298;50.900;4.648;2022-08-19T12:57:54;27.00;97.10
26687;DHT22;14298;50.900;4.648;2022-08-19T13:00:23;27.10;97.10
26687;DHT22;14298;50.900;4.648;2022-08-19T13:02:52;27.00;97.10
26687;DHT22;14298;50.900;4.648;2022-08-19T13:05:23;27.20;97.10
26687;DHT22;14298;50.900;4.648;2022-08-19T13:07:53;26.90;97.10
26687;DHT22;14298;50.900;4.648;2022-08-19T13:10:29;27.00;97.10
26687;DHT22;14298;50.900;4.648;2022-08-19T13:12:58;26.80;97.10
26687;DHT22;14298;50.900;4.648;2022-08-19T13:15:29;26.70;97.10
26687;DHT22;14298;50.900;4.648;2022-08-19T13:17:58;26.80;97.10
26687;DHT22;14298;50.900;4.648;2022-08-19T13:20:27;26.90;97.10
26687;DHT22;14298;50.900;4.648;2022-08-19T13:22:56;26.90;97.10
26687;DHT22;14298;50.900;4.648;2022-08-19T13:25:25;26.90;97.10
26687;DHT22;14298;50.900;4.648;2022-08-19T13:27:53;26.90;97.10
26687;DHT22;14298;50.900;4.648;2022-08-19T13:30:22;26.80;97.10
26687;DHT22;14298;50.900;4.648;2022-08-19T13:33:09;26.90;97.10
26687;DHT22;14298;50.900;4.648;2022-08-19T13:35:53;26.70;97.10
26687;DHT22;14298;50.900;4.648;2022-08-19T13:38:22;26.60;97.10
26687;DHT22;14298;50.900;4.648;2022-08-19T13:40:52;26.40;97.10
26687;DHT22;14298;50.900;4.648;2022-08-19T13:43:23;26.30;97.10
26687;DHT22;14298;50.900;4.648;2022-08-19T13:45:53;26.40;97.10
26687;DHT22;14298;50.900;4.648;2022-08-19T13:48:24;26.70;97.10
26687;DHT22;14298;50.900;4.648;2022-08-19T13:50:53;27.10;97.10
26687;DHT22;14298;50.900;4.648;2022-08-19T13:53:22;27.40;97.10
26687;DHT22;14298;50.900;4.648;2022-08-19T13:55:50;27.30;97.10
26687;DHT22;14298;50.900;4.648;2022-08-19T13:58:21;27.40;97.10
26687;DHT22;14298;50.900;4.648;2022-08-19T14:00:49;27.40;97.10
26687;DHT22;14298;50.900;4.648;2022-08-19T14:03:18;27.50;97.10
26687;DHT22;14298;50.900;4.648;2022-08-19T14:05:46;27.60;97.10
26687;DHT22;14298;50.900;4.648;2022-08-19T14:08:15;27.60;97.10
26687;DHT22;14298;50.900;4.648;2022-08-19T14:10:43;27.60;97.10
26687;DHT22;14298;50.900;4.648;2022-08-19T14:13:19;27.20;97.10
26687;DHT22;14298;50.900;4.648;2022-08-19T14:15:47;27.10;97.10
26687;DHT22;14298;50.900;4.648;2022-08-19T14:18:17;27.20;97.10
26687;DHT22;14298;50.900;4.648;2022-08-19T14:20:46;27.30;97.10
26687;DHT22;14298;50.900;4.648;2022-08-19T14:23:14;27.30;97.10
26687;DHT22;14298;50.900;4.648;2022-08-19T14:25:43;27.50;97.10
26687;DHT22;14298;50.900;4.648;2022-08-19T14:28:11;27.20;97.10
26687;DHT22;14298;50.900;4.648;2022-08-19T14:30:40;26.90;97.10
26687;DHT22;14298;50.900;4.648;2022-08-19T14:33:08;26.80;97.10
26687;DHT22;14298;50.900;4.648;2022-08-19T14:35:37;26.80;97.10
26687;DHT22;14298;50.900;4.648;2022-08-19T14:38:06;26.70;97.10
26687;DHT22;14298;50.900;4.648;2022-08-19T14:40:36;26.80;97.10
26687;DHT22;14298;50.900;4.648;2022-08-19T14:43:05;26.80;97.10
26687;DHT22;14298;50.900;4.648;2022-08-19T14:45:35;26.70;97.10
26687;DHT22;14298;50.900;4.648;2022-08-19T14:48:05;26.60;97.10
26687;DHT22;14298;50.900;4.648;2022-08-19T14:50:34;26.40;97.10
26687;DHT22;14298;50.900;4.648;2022-08-19T14:53:07;26.00;97.10
26687;DHT22;14298;50.900;4.648;2022-08-19T14:55:36;25.60;97.10
26687;DHT22;14298;50.900;4.648;2022-08-19T14:58:05;25.40;97.10
26687;DHT22;14298;50.900;4.648;2022-08-19T15:00:34;25.30;97.10
26687;DHT22;14298;50.900;4.648;2022-08-19T15:03:03;24.80;97.10
26687;DHT22;14298;50.900;4.648;2022-08-19T15:05:32;23.90;97.10
26687;DHT22;14298;50.900;4.648;2022-08-19T15:08:03;23.50;97.10
26687;DHT22;14298;50.900;4.648;2022-08-19T15:10:31;23.30;97.10
26687;DHT22;14298;50.900;4.648;2022-08-19T15:13:00;23.20;97.10
26687;DHT22;14298;50.900;4.648;2022-08-19T15:15:28;23.40;97.10
26687;DHT22;14298;50.900;4.648;2022-08-19T15:17:57;23.60;97.10
26687;DHT22;14298;50.900;4.648;2022-08-19T15:20:27;23.60;97.10
26687;DHT22;14298;50.900;4.648;2022-08-19T15:22:56;23.70;97.10
26687;DHT22;14298;50.900;4.648;2022-08-19T15:25:26;23.80;97.10
26687;DHT22;14298;50.900;4.648;2022-08-19T15:27:55;24.00;97.10
26687;DHT22;14298;50.900;4.648;2022-08-19T15:30:25;24.00;97.10
26687;DHT22;14298;50.900;4.648;2022-08-19T15:32:56;23.90;97.10
26687;DHT22;14298;50.900;4.648;2022-08-19T15:35:27;23.70;97.10
26687;DHT22;14298;50.900;4.648;2022-08-19T15:37:55;23.50;97.10
26687;DHT22;14298;50.900;4.648;2022-08-19T15:40:25;23.50;97.10
26687;DHT22;14298;50.900;4.648;2022-08-19T15:42:54;23.50;97.10
26687;DHT22;14298;50.900;4.648;2022-08-19T15:45:25;23.60;97.10
26687;DHT22;14298;50.900;4.648;2022-08-19T15:48:02;23.70;97.10
26687;DHT22;14298;50.900;4.648;2022-08-19T15:50:31;23.70;97.10
26687;DHT22;14298;50.900;4.648;2022-08-19T15:53:05;24.00;97.10
26687;DHT22;14298;50.900;4.648;2022-08-19T15:55:40;24.20;97.10